Independence, Iowa
Current Conditions -  °F | °C
As of 4:35 PM on Monday 22 Dec 2014 (Local Time) from KIIB Reporting Station
Haze Haze  
Wind Chill: 24°   Ceiling: 600
Heat Index: 34°   Visibility: 5mi
Dew Point: 34°   Wind: 14mph
Humidity: 100%   Direction: 110°ESE
Pressure: 29.54"   Gusts: 20mph
Location:  42.48°N, 91.89°W
Report Text: KIIB 222235Z AUTO 11012G17KT 5SM BR OVC006 01/01 A2954 RMK AO2
Loading
Personal Weather Stations






























Interactive Weather Map New forecast layout! Learn more

10-Day Weather Forecast

Advertisements
Track Severe Weather on mobile